Time;durP1;ratioP1;P1;durP2;ratioP2;P2;SDS_P1;SDS_P2;PMS_P1;PMS_P2;Temp;Humidity;BMP_temperature;BMP_pressure;BME280_temperature;BME280_humidity;BME280_pressure;Samples;Min_cycle;Max_cycle;Signal;HPM_P1;HPM_P2
2024/02/10 00:00:45;;;;;;;;;;;;;;;;;;5050488;28;19929;-79
2024/02/10 00:03:12;;;;;;;;;;;;;;;;;;5050295;28;19925;-79
2024/02/10 00:05:45;;;;;;;;;;;;;;;;;;5050183;28;19925;-79
2024/02/10 00:08:12;;;;;;;;;;;;;;;;;;5047756;28;19932;-80
2024/02/10 00:10:39;;;;;;;;;;;;;;;;;;5058041;28;19956;-79
2024/02/10 00:13:06;;;;;;;;;;;;;;;;;;5050117;28;19935;-80
2024/02/10 00:15:33;;;;;;;;;;;;;;;;;;5046944;28;19929;-74
2024/02/10 00:18:00;;;;;;;;;;;;;;;;;;5041963;28;20391;-79
2024/02/10 00:20:28;;;;;;;;;;;;;;;;;;5048543;28;20022;-77
2024/02/10 00:22:56;;;;;;;;;;;;;;;;;;5047791;28;19935;-79
2024/02/10 00:25:23;;;;;;;;;;;;;;;;;;5054184;28;19928;-80
2024/02/10 00:27:53;;;;;;;;;;;;;;;;;;5050031;28;19929;-81
2024/02/10 00:30:20;;;;;;;;;;;;;;;;;;5049095;28;19936;-79
2024/02/10 00:32:51;;;;;;;;;;;;;;;;;;5039793;28;20015;-78
2024/02/10 00:35:21;;;;;;;;;;;;;;;;;;5048315;28;19935;-79
2024/02/10 00:37:48;;;;;;;;;;;;;;;;;;5048943;28;20056;-79
2024/02/10 00:40:15;;;;;;;;;;;;;;;;;;5048267;28;19929;-79
2024/02/10 00:42:42;;;;;;;;;;;;;;;;;;5049848;28;19935;-80
2024/02/10 00:45:10;;;;;;;;;;;;;;;;;;5048425;28;20383;-79
2024/02/10 00:47:37;;;;;;;;;;;;;;;;;;5048645;28;19929;-77
2024/02/10 00:50:04;;;;;;;;;;;;;;;;;;5047051;28;20307;-76
2024/02/10 00:52:31;;;;;;;;;;;;;;;;;;5048358;28;20466;-79
2024/02/10 00:54:58;;;;;;;;;;;;;;;;;;5048781;28;19932;-78
2024/02/10 00:57:28;;;;;;;;;;;;;;;;;;5048837;28;19935;-80
2024/02/10 00:59:56;;;;;;;;;;;;;;;;;;5050351;28;19929;-79
2024/02/10 01:02:23;;;;;;;;;;;;;;;;;;5048975;28;19929;-81
2024/02/10 01:04:54;;;;;;;;;;;;;;;;;;5049525;28;19982;-82
2024/02/10 01:07:24;;;;;;;;;;;;;;;;;;5049807;28;19929;-77
2024/02/10 01:09:51;;;;;;;;;;;;;;;;;;5047787;28;19929;-78
2024/02/10 01:12:18;;;;;;;;;;;;;;;;;;5048521;28;19936;-79
2024/02/10 01:14:45;;;;;;;;;;;;;;;;;;5043340;28;20043;-80
2024/02/10 01:17:13;;;;;;;;;;;;;;;;;;5044085;28;19928;-80
2024/02/10 01:19:49;;;;;;;;;;;;;;;;;;5049210;28;19929;-80
2024/02/10 01:22:16;;;;;;;;;;;;;;;;;;5044051;28;19972;-79
2024/02/10 01:24:45;;;;;;;;;;;;;;;;;;5052738;28;19936;-79
2024/02/10 01:27:16;;;;;;;;;;;;;;;;;;5049366;28;19929;-79
2024/02/10 01:29:44;;;;;;;;;;;;;;;;;;5052012;28;19929;-78
2024/02/10 01:32:11;;;;;;;;;;;;;;;;;;5048007;28;19929;-80
2024/02/10 01:34:39;;;;;;;;;;;;;;;;;;5048256;28;19982;-79
2024/02/10 01:37:07;;;;;;;;;;;;;;;;;;5048599;28;19928;-79
2024/02/10 01:39:34;;;;;;;;;;;;;;;;;;5048426;28;20429;-79
2024/02/10 01:42:01;;;;;;;;;;;;;;;;;;5053616;28;19943;-79
2024/02/10 01:44:29;;;;;;;;;;;;;;;;;;5047782;28;20471;-78
2024/02/10 01:46:59;;;;;;;;;;;;;;;;;;5043581;28;19932;-78
2024/02/10 01:49:26;;;;;;;;;;;;;;;;;;5043447;28;19982;-78
2024/02/10 01:51:53;;;;;;;;;;;;;;;;;;5048070;28;20663;-78
2024/02/10 01:54:20;;;;;;;;;;;;;;;;;;5052492;28;20011;-78
2024/02/10 01:56:47;;;;;;;;;;;;;;;;;;5051729;28;19925;-78
2024/02/10 01:59:14;;;;;;;;;;;;;;;;;;5048179;28;19932;-78
2024/02/10 02:01:48;;;;;;;;;;;;;;;;;;5043055;28;19977;-78
2024/02/10 02:04:15;;;;;;;;;;;;;;;;;;5040031;28;20399;-80
2024/02/10 02:06:42;;;;;;;;;;;;;;;;;;5043752;28;20118;-79
2024/02/10 02:09:10;;;;;;;;;;;;;;;;;;5057229;28;20012;-79
2024/02/10 02:11:37;;;;;;;;;;;;;;;;;;5050496;28;19925;-80
2024/02/10 02:14:04;;;;;;;;;;;;;;;;;;5048402;28;20378;-79
2024/02/10 02:16:35;;;;;;;;;;;;;;;;;;5051406;28;19929;-79
2024/02/10 02:19:02;;;;;;;;;;;;;;;;;;5049946;28;20277;-79
2024/02/10 02:21:32;;;;;;;;;;;;;;;;;;5048748;28;19975;-79
2024/02/10 02:23:59;;;;;;;;;;;;;;;;;;5048936;28;20600;-80
2024/02/10 02:26:26;;;;;;;;;;;;;;;;;;5048571;28;20019;-80
2024/02/10 02:28:53;;;;;;;;;;;;;;;;;;5040064;28;20003;-79
2024/02/10 02:31:20;;;;;;;;;;;;;;;;;;5061671;28;19929;-80
2024/02/10 02:33:47;;;;;;;;;;;;;;;;;;5045083;28;19929;-77
2024/02/10 02:36:17;;;;;;;;;;;;;;;;;;5047861;28;20019;-79
2024/02/10 02:38:44;;;;;;;;;;;;;;;;;;5038923;28;20392;-80
2024/02/10 02:41:11;;;;;;;;;;;;;;;;;;5050752;28;19937;-80
2024/02/10 02:43:38;;;;;;;;;;;;;;;;;;5045130;28;19935;-80
2024/02/10 02:46:06;;;;;;;;;;;;;;;;;;5050417;28;19932;-79
2024/02/10 02:48:35;;;;;;;;;;;;;;;;;;5046390;28;19952;-80
2024/02/10 02:51:02;;;;;;;;;;;;;;;;;;5045738;28;19974;-80
2024/02/10 02:53:31;;;;;;;;;;;;;;;;;;5049618;28;19964;-80
2024/02/10 02:55:58;;;;;;;;;;;;;;;;;;5049599;28;19979;-78
2024/02/10 02:58:28;;;;;;;;;;;;;;;;;;5037150;28;19940;-80
2024/02/10 03:00:55;;;;;;;;;;;;;;;;;;5048438;28;19924;-79
2024/02/10 03:03:22;;;;;;;;;;;;;;;;;;5046767;28;20015;-79
2024/02/10 03:05:49;;;;;;;;;;;;;;;;;;5049228;28;19982;-80
2024/02/10 03:08:16;;;;;;;;;;;;;;;;;;5048655;28;19964;-80
2024/02/10 03:10:43;;;;;;;;;;;;;;;;;;5050171;28;20063;-79
2024/02/10 03:13:10;;;;;;;;;;;;;;;;;;5048949;28;19935;-80
2024/02/10 03:15:37;;;;;;;;;;;;;;;;;;5045076;28;19929;-77
2024/02/10 03:18:04;;;;;;;;;;;;;;;;;;5048212;28;19929;-78
2024/02/10 03:20:32;;;;;;;;;;;;;;;;;;5047681;28;19925;-78
2024/02/10 03:23:01;;;;;;;;;;;;;;;;;;5046604;28;20475;-78
2024/02/10 03:25:28;;;;;;;;;;;;;;;;;;5052714;28;19929;-77
2024/02/10 03:27:55;;;;;;;;;;;;;;;;;;5045728;28;19939;-77
2024/02/10 03:30:23;;;;;;;;;;;;;;;;;;5053263;28;19936;-76
2024/02/10 03:32:53;;;;;;;;;;;;;;;;;;5043295;28;20296;-76
2024/02/10 03:35:20;;;;;;;;;;;;;;;;;;5049194;28;19932;-76
2024/02/10 03:37:47;;;;;;;;;;;;;;;;;;5045659;28;20023;-76
2024/02/10 03:40:18;;;;;;;;;;;;;;;;;;5036096;28;20003;-78
2024/02/10 03:42:45;;;;;;;;;;;;;;;;;;5046608;28;19939;-77
2024/02/10 03:45:14;;;;;;;;;;;;;;;;;;5046627;28;20019;-77
2024/02/10 03:47:42;;;;;;;;;;;;;;;;;;5042678;28;20019;-78
2024/02/10 03:50:09;;;;;;;;;;;;;;;;;;5049483;28;19935;-77
2024/02/10 03:52:36;;;;;;;;;;;;;;;;;;5047374;28;20311;-77
2024/02/10 03:55:04;;;;;;;;;;;;;;;;;;5051480;28;20007;-76
2024/02/10 03:57:31;;;;;;;;;;;;;;;;;;5042905;28;19999;-76
2024/02/10 03:59:58;;;;;;;;;;;;;;;;;;5048065;28;19929;-76
2024/02/10 04:02:25;;;;;;;;;;;;;;;;;;5051986;28;20018;-77
2024/02/10 04:04:53;;;;;;;;;;;;;;;;;;5045561;28;19933;-77
2024/02/10 04:07:20;;;;;;;;;;;;;;;;;;5053567;28;20020;-77
2024/02/10 04:09:47;;;;;;;;;;;;;;;;;;5036434;28;20018;-78
2024/02/10 04:12:14;;;;;;;;;;;;;;;;;;5040670;28;19982;-77
2024/02/10 04:14:41;;;;;;;;;;;;;;;;;;5043585;28;20392;-77
2024/02/10 04:17:08;;;;;;;;;;;;;;;;;;5043083;28;19933;-78
2024/02/10 04:19:35;;;;;;;;;;;;;;;;;;5049549;28;20015;-76
2024/02/10 04:22:04;;;;;;;;;;;;;;;;;;5043623;28;20062;-77
2024/02/10 04:24:31;;;;;;;;;;;;;;;;;;5043747;28;19997;-78
2024/02/10 04:26:58;;;;;;;;;;;;;;;;;;5049297;28;19974;-76
2024/02/10 04:29:25;;;;;;;;;;;;;;;;;;5049224;28;19975;-76
2024/02/10 04:31:56;;;;;;;;;;;;;;;;;;5049221;28;20362;-76
2024/02/10 04:34:23;;;;;;;;;;;;;;;;;;5051099;28;19929;-75
2024/02/10 04:36:51;;;;;;;;;;;;;;;;;;5050035;28;19929;-77
2024/02/10 04:39:18;;;;;;;;;;;;;;;;;;5049257;28;20387;-77
2024/02/10 04:41:45;;;;;;;;;;;;;;;;;;5038993;28;19935;-77
2024/02/10 04:44:12;;;;;;;;;;;;;;;;;;5049389;28;19984;-77
2024/02/10 04:46:42;;;;;;;;;;;;;;;;;;5049173;28;19928;-77
2024/02/10 04:49:10;;;;;;;;;;;;;;;;;;5047698;28;19931;-76
2024/02/10 04:51:39;;;;;;;;;;;;;;;;;;5056816;28;19986;-77
2024/02/10 04:54:08;;;;;;;;;;;;;;;;;;5048828;28;19959;-77
2024/02/10 04:56:35;;;;;;;;;;;;;;;;;;5046857;28;20040;-78
2024/02/10 04:59:02;;;;;;;;;;;;;;;;;;5048415;28;19971;-77
2024/02/10 05:01:29;;;;;;;;;;;;;;;;;;5047440;28;19979;-77
2024/02/10 05:03:56;;;;;;;;;;;;;;;;;;5054019;28;20065;-78
2024/02/10 05:06:23;;;;;;;;;;;;;;;;;;5053700;28;19928;-76
2024/02/10 05:08:50;;;;;;;;;;;;;;;;;;5049404;28;19933;-76
2024/02/10 05:11:17;;;;;;;;;;;;;;;;;;5048223;28;19929;-77
2024/02/10 05:13:44;;;;;;;;;;;;;;;;;;5048744;28;19929;-76
2024/02/10 05:16:11;;;;;;;;;;;;;;;;;;5048397;28;20363;-76
2024/02/10 05:18:38;;;;;;;;;;;;;;;;;;5059541;28;19968;-77
2024/02/10 05:21:05;;;;;;;;;;;;;;;;;;5050661;28;19961;-77
2024/02/10 05:23:35;;;;;;;;;;;;;;;;;;5050966;28;19971;-77
2024/02/10 05:26:03;;;;;;;;;;;;;;;;;;5052347;28;19928;-79
2024/02/10 05:28:30;;;;;;;;;;;;;;;;;;5052966;28;19933;-78
2024/02/10 05:30:59;;;;;;;;;;;;;;;;;;5043986;28;19928;-77
2024/02/10 05:33:27;;;;;;;;;;;;;;;;;;5053196;28;20652;-78
2024/02/10 05:35:54;;;;;;;;;;;;;;;;;;5052069;28;19929;-78
2024/02/10 05:38:21;;;;;;;;;;;;;;;;;;5051983;28;19929;-77
2024/02/10 05:40:48;;;;;;;;;;;;;;;;;;5050836;28;19929;-77
2024/02/10 05:43:15;;;;;;;;;;;;;;;;;;5042450;28;19933;-77
2024/02/10 05:45:43;;;;;;;;;;;;;;;;;;5052233;28;20394;-77
2024/02/10 05:48:10;;;;;;;;;;;;;;;;;;5046076;28;19929;-76
2024/02/10 05:50:37;;;;;;;;;;;;;;;;;;5051882;28;20007;-75
2024/02/10 05:53:06;;;;;;;;;;;;;;;;;;5050563;28;19935;-77
2024/02/10 05:55:34;;;;;;;;;;;;;;;;;;5049856;28;19934;-75
2024/02/10 05:58:04;;;;;;;;;;;;;;;;;;5051741;28;20027;-77
2024/02/10 06:00:31;;;;;;;;;;;;;;;;;;5050988;28;19968;-78
2024/02/10 06:02:59;;;;;;;;;;;;;;;;;;5052119;28;20578;-78
2024/02/10 06:05:26;;;;;;;;;;;;;;;;;;5051550;28;19936;-77
2024/02/10 06:07:54;;;;;;;;;;;;;;;;;;5048266;28;19928;-77
2024/02/10 06:10:21;;;;;;;;;;;;;;;;;;5051994;28;20032;-77
2024/02/10 06:12:49;;;;;;;;;;;;;;;;;;5050836;28;19932;-77
2024/02/10 06:15:17;;;;;;;;;;;;;;;;;;5050915;28;19928;-78
2024/02/10 06:17:44;;;;;;;;;;;;;;;;;;5051915;28;19936;-78
2024/02/10 06:20:14;;;;;;;;;;;;;;;;;;5050688;28;19976;-78
2024/02/10 06:22:41;;;;;;;;;;;;;;;;;;5053460;28;19974;-77
2024/02/10 06:25:11;;;;;;;;;;;;;;;;;;5050851;28;19928;-78
2024/02/10 06:27:40;;;;;;;;;;;;;;;;;;5050139;28;20396;-77
2024/02/10 06:30:08;;;;;;;;;;;;;;;;;;5050970;28;19932;-78
2024/02/10 06:32:37;;;;;;;;;;;;;;;;;;5057331;28;19935;-79
2024/02/10 06:35:04;;;;;;;;;;;;;;;;;;5054542;28;19982;-78
2024/02/10 06:37:32;;;;;;;;;;;;;;;;;;5049917;28;20056;-75
2024/02/10 06:39:59;;;;;;;;;;;;;;;;;;5051157;28;19972;-77
2024/02/10 06:42:29;;;;;;;;;;;;;;;;;;5049926;28;19936;-77
2024/02/10 06:44:59;;;;;;;;;;;;;;;;;;5060309;28;20631;-78
2024/02/10 06:47:26;;;;;;;;;;;;;;;;;;5048057;28;20556;-77
2024/02/10 06:49:53;;;;;;;;;;;;;;;;;;5050913;28;20023;-76
2024/02/10 06:52:21;;;;;;;;;;;;;;;;;;5060802;28;20359;-77
2024/02/10 06:54:50;;;;;;;;;;;;;;;;;;5052626;28;19924;-77
2024/02/10 06:57:17;;;;;;;;;;;;;;;;;;5050372;28;19939;-78
2024/02/10 06:59:45;;;;;;;;;;;;;;;;;;5051110;28;20753;-77
2024/02/10 07:02:14;;;;;;;;;;;;;;;;;;5047498;28;19994;-77
2024/02/10 07:04:41;;;;;;;;;;;;;;;;;;5056032;28;19935;-79
2024/02/10 07:07:08;;;;;;;;;;;;;;;;;;5050540;28;19936;-77
2024/02/10 07:09:35;;;;;;;;;;;;;;;;;;5053234;28;19928;-78
2024/02/10 07:12:02;;;;;;;;;;;;;;;;;;5051757;28;20444;-76
2024/02/10 07:14:33;;;;;;;;;;;;;;;;;;5050749;28;20070;-77
2024/02/10 07:17:00;;;;;;;;;;;;;;;;;;5050139;28;20529;-78
2024/02/10 07:19:29;;;;;;;;;;;;;;;;;;5049244;28;20387;-76
2024/02/10 07:21:58;;;;;;;;;;;;;;;;;;5050546;28;19932;-76
2024/02/10 07:24:25;;;;;;;;;;;;;;;;;;5048804;28;19952;-77
2024/02/10 07:26:56;;;;;;;;;;;;;;;;;;5050673;28;20027;-77
2024/02/10 07:29:23;;;;;;;;;;;;;;;;;;5045146;28;19929;-77
2024/02/10 07:31:50;;;;;;;;;;;;;;;;;;5048874;28;19935;-77
2024/02/10 07:34:17;;;;;;;;;;;;;;;;;;5053018;28;19968;-78
2024/02/10 07:36:44;;;;;;;;;;;;;;;;;;5048206;28;19928;-78
2024/02/10 07:39:14;;;;;;;;;;;;;;;;;;5052096;28;19929;-78
2024/02/10 07:41:41;;;;;;;;;;;;;;;;;;5049197;28;20334;-78
2024/02/10 07:44:12;;;;;;;;;;;;;;;;;;5049565;28;20015;-78
2024/02/10 07:46:39;;;;;;;;;;;;;;;;;;5048509;28;19936;-77
2024/02/10 07:49:06;;;;;;;;;;;;;;;;;;5050017;28;20455;-78
2024/02/10 07:51:33;;;;;;;;;;;;;;;;;;5049078;28;19980;-78
2024/02/10 07:54:00;;;;;;;;;;;;;;;;;;5053287;28;19929;-75
2024/02/10 07:56:28;;;;;;;;;;;;;;;;;;5049677;28;19939;-77
2024/02/10 07:58:58;;;;;;;;;;;;;;;;;;5049829;28;19928;-77
2024/02/10 08:01:26;;;;;;;;;;;;;;;;;;5048497;28;19924;-78
2024/02/10 08:03:54;;;;;;;;;;;;;;;;;;5041912;28;19929;-79
2024/02/10 08:06:21;;;;;;;;;;;;;;;;;;5049959;28;20391;-78
2024/02/10 08:08:49;;;;;;;;;;;;;;;;;;5050413;28;19940;-79
2024/02/10 08:11:16;;;;;;;;;;;;;;;;;;5049166;28;20312;-79
2024/02/10 08:13:43;;;;;;;;;;;;;;;;;;5048311;28;19936;-80
2024/02/10 08:16:10;;;;;;;;;;;;;;;;;;5048766;28;19983;-80
2024/02/10 08:18:37;;;;;;;;;;;;;;;;;;5048968;28;20023;-78
2024/02/10 08:21:06;;;;;;;;;;;;;;;;;;5044013;28;19929;-78
2024/02/10 08:23:34;;;;;;;;;;;;;;;;;;5047621;28;19933;-78
2024/02/10 08:26:01;;;;;;;;;;;;;;;;;;5048093;28;19939;-78
2024/02/10 08:28:29;;;;;;;;;;;;;;;;;;5047410;28;19937;-76
2024/02/10 08:30:57;;;;;;;;;;;;;;;;;;5049296;28;19929;-78
2024/02/10 08:33:26;;;;;;;;;;;;;;;;;;5048677;28;19935;-76
2024/02/10 08:35:55;;;;;;;;;;;;;;;;;;5047400;28;19929;-77
2024/02/10 08:38:22;;;;;;;;;;;;;;;;;;5050319;28;20315;-78
2024/02/10 08:40:49;;;;;;;;;;;;;;;;;;5048275;28;20679;-78
2024/02/10 08:43:18;;;;;;;;;;;;;;;;;;5048015;28;19975;-78
2024/02/10 08:45:48;;;;;;;;;;;;;;;;;;5049176;28;19929;-78
2024/02/10 08:48:16;;;;;;;;;;;;;;;;;;5046285;28;19932;-79
2024/02/10 08:50:46;;;;;;;;;;;;;;;;;;5035479;28;19929;-80
2024/02/10 08:53:15;;;;;;;;;;;;;;;;;;5036354;28;19925;-81
2024/02/10 08:55:43;;;;;;;;;;;;;;;;;;5048788;28;20029;-81
2024/02/10 08:58:10;;;;;;;;;;;;;;;;;;5049534;28;19929;-80
2024/02/10 09:00:37;;;;;;;;;;;;;;;;;;5046181;28;20033;-82
2024/02/10 09:03:04;;;;;;;;;;;;;;;;;;5047777;28;20368;-75
2024/02/10 09:05:31;;;;;;;;;;;;;;;;;;5042618;28;19951;-80
2024/02/10 09:08:01;;;;;;;;;;;;;;;;;;5034706;28;20059;-78
2024/02/10 09:10:28;;;;;;;;;;;;;;;;;;5055957;28;20008;-81
2024/02/10 09:12:56;;;;;;;;;;;;;;;;;;5051944;28;19929;-81
2024/02/10 09:15:23;;;;;;;;;;;;;;;;;;5049009;28;19933;-81
2024/02/10 09:17:51;;;;;;;;;;;;;;;;;;5032782;28;19925;-80
2024/02/10 09:20:18;;;;;;;;;;;;;;;;;;5043500;28;20673;-81
2024/02/10 09:22:45;;;;;;;;;;;;;;;;;;5039964;28;19933;-81
2024/02/10 09:25:12;;;;;;;;;;;;;;;;;;5050754;28;19971;-80
2024/02/10 09:27:39;;;;;;;;;;;;;;;;;;5039094;28;19928;-81
2024/02/10 09:30:11;;;;;;;;;;;;;;;;;;5042796;28;19924;-81
2024/02/10 09:32:38;;;;;;;;;;;;;;;;;;5050135;28;20398;-82
2024/02/10 09:35:06;;;;;;;;;;;;;;;;;;5044297;28;20304;-80
2024/02/10 09:37:33;;;;;;;;;;;;;;;;;;5048912;28;20296;-79
2024/02/10 09:40:02;;;;;;;;;;;;;;;;;;5049933;28;20011;-79
2024/02/10 09:42:29;;;;;;;;;;;;;;;;;;5039406;28;19933;-79
2024/02/10 09:44:57;;;;;;;;;;;;;;;;;;5049382;28;20019;-79
2024/02/10 09:47:24;;;;;;;;;;;;;;;;;;5039274;28;20024;-80
2024/02/10 09:49:51;;;;;;;;;;;;;;;;;;5045046;28;20530;-81
2024/02/10 09:52:23;;;;;;;;;;;;;;;;;;5043443;28;20011;-80
2024/02/10 09:54:50;;;;;;;;;;;;;;;;;;5041099;28;19928;-80
2024/02/10 09:57:17;;;;;;;;;;;;;;;;;;5038256;28;19935;-82
2024/02/10 09:59:44;;;;;;;;;;;;;;;;;;5042494;28;19924;-81
2024/02/10 10:02:14;;;;;;;;;;;;;;;;;;5034654;28;20685;-81
2024/02/10 10:04:41;;;;;;;;;;;;;;;;;;5040551;28;19998;-82
2024/02/10 10:07:09;;;;;;;;;;;;;;;;;;5039627;28;19980;-81
2024/02/10 10:09:36;;;;;;;;;;;;;;;;;;5044427;28;19929;-82
2024/02/10 10:12:10;;;;;;;;;;;;;;;;;;5050007;28;19929;-81
2024/02/10 10:14:40;;;;;;;;;;;;;;;;;;5039520;28;19933;-79
2024/02/10 10:17:13;;;;;;;;;;;;;;;;;;5041919;28;20407;-80
2024/02/10 10:19:40;;;;;;;;;;;;;;;;;;5044553;28;19936;-79
2024/02/10 10:22:07;;;;;;;;;;;;;;;;;;5046438;28;20294;-83
2024/02/10 10:24:34;;;;;;;;;;;;;;;;;;5041624;28;20018;-80
2024/02/10 10:27:02;;;;;;;;;;;;;;;;;;5043611;28;19976;-77
2024/02/10 10:29:30;;;;;;;;;;;;;;;;;;5046169;28;19929;-81
2024/02/10 10:31:58;;;;;;;;;;;;;;;;;;5037359;28;20273;-82
2024/02/10 10:34:25;;;;;;;;;;;;;;;;;;5035039;28;20331;-82
2024/02/10 10:36:52;;;;;;;;;;;;;;;;;;5039033;28;19929;-83
2024/02/10 10:39:20;;;;;;;;;;;;;;;;;;5037147;28;19944;-82
2024/02/10 10:41:47;;;;;;;;;;;;;;;;;;5039610;28;19994;-82
2024/02/10 10:44:14;;;;;;;;;;;;;;;;;;5035206;28;20100;-84
2024/02/10 10:46:41;;;;;;;;;;;;;;;;;;5025110;28;20475;-74
2024/02/10 10:49:09;;;;;;;;;;;;;;;;;;5027156;28;19933;-76
2024/02/10 10:51:37;;;;;;;;;;;;;;;;;;5025502;28;19940;-77
2024/02/10 10:54:04;;;;;;;;;;;;;;;;;;5023632;28;20295;-77
2024/02/10 10:56:31;;;;;;;;;;;;;;;;;;5046754;28;20023;-76
2024/02/10 10:58:58;;;;;;;;;;;;;;;;;;5036274;28;19936;-77
2024/02/10 11:01:25;;;;;;;;;;;;;;;;;;5043216;28;20363;-75
2024/02/10 11:03:54;;;;;;;;;;;;;;;;;;5028147;28;19933;-76
2024/02/10 11:06:22;;;;;;;;;;;;;;;;;;5053789;28;20426;-77
2024/02/10 11:08:51;;;;;;;;;;;;;;;;;;5037411;28;20397;-77
2024/02/10 11:11:18;;;;;;;;;;;;;;;;;;5045190;28;19929;-77
2024/02/10 11:13:45;;;;;;;;;;;;;;;;;;5039405;28;19932;-75
2024/02/10 11:16:13;;;;;;;;;;;;;;;;;;5034577;28;20440;-75
2024/02/10 11:18:43;;;;;;;;;;;;;;;;;;5036523;28;19943;-74
2024/02/10 11:21:10;;;;;;;;;;;;;;;;;;5040057;28;20311;-75
2024/02/10 11:23:38;;;;;;;;;;;;;;;;;;5038334;28;19929;-75
2024/02/10 11:26:07;;;;;;;;;;;;;;;;;;5043845;28;19951;-76
2024/02/10 11:28:36;;;;;;;;;;;;;;;;;;5038093;28;19933;-74
2024/02/10 11:31:09;;;;;;;;;;;;;;;;;;5044539;28;19929;-75
2024/02/10 11:33:36;;;;;;;;;;;;;;;;;;5044714;28;19929;-76
2024/02/10 11:36:03;;;;;;;;;;;;;;;;;;5041582;28;19951;-74
2024/02/10 11:38:30;;;;;;;;;;;;;;;;;;5033015;28;19933;-76
2024/02/10 11:40:57;;;;;;;;;;;;;;;;;;5037162;28;19975;-76
2024/02/10 11:43:26;;;;;;;;;;;;;;;;;;5043893;28;19929;-76
2024/02/10 11:45:53;;;;;;;;;;;;;;;;;;5044869;28;19972;-76
2024/02/10 11:48:21;;;;;;;;;;;;;;;;;;5039111;28;19933;-78
2024/02/10 11:50:49;;;;;;;;;;;;;;;;;;5039378;28;20411;-76
2024/02/10 11:53:16;;;;;;;;;;;;;;;;;;5045025;28;19958;-77
2024/02/10 11:55:47;;;;;;;;;;;;;;;;;;5046993;28;19968;-77
2024/02/10 11:58:16;;;;;;;;;;;;;;;;;;5036565;28;19935;-79
2024/02/10 12:00:44;;;;;;;;;;;;;;;;;;5040628;28;20351;-79
2024/02/10 12:03:13;;;;;;;;;;;;;;;;;;5035234;28;19932;-77
2024/02/10 12:05:40;;;;;;;;;;;;;;;;;;5037264;28;20387;-78
2024/02/10 12:08:07;;;;;;;;;;;;;;;;;;5047469;28;19940;-75
2024/02/10 12:10:34;;;;;;;;;;;;;;;;;;5033626;28;19936;-77
2024/02/10 12:13:01;;;;;;;;;;;;;;;;;;5038413;28;20041;-79
2024/02/10 12:15:28;;;;;;;;;;;;;;;;;;5043213;28;19928;-78
2024/02/10 12:17:56;;;;;;;;;;;;;;;;;;5040738;28;20585;-79
2024/02/10 12:20:23;;;;;;;;;;;;;;;;;;5044748;28;20366;-79
2024/02/10 12:22:51;;;;;;;;;;;;;;;;;;5042537;28;19937;-77
2024/02/10 12:25:19;;;;;;;;;;;;;;;;;;5038489;28;19999;-77
2024/02/10 12:27:46;;;;;;;;;;;;;;;;;;5039095;28;19932;-77
2024/02/10 12:30:13;;;;;;;;;;;;;;;;;;5035927;28;20401;-77
2024/02/10 12:32:40;;;;;;;;;;;;;;;;;;5045358;28;19933;-75
2024/02/10 12:35:10;;;;;;;;;;;;;;;;;;5043966;28;19932;-76
2024/02/10 12:37:37;;;;;;;;;;;;;;;;;;5039045;28;20396;-76
2024/02/10 12:40:05;;;;;;;;;;;;;;;;;;5039647;28;20023;-76
2024/02/10 12:42:32;;;;;;;;;;;;;;;;;;5044965;28;19964;-76
2024/02/10 12:44:59;;;;;;;;;;;;;;;;;;5043674;28;19971;-74
2024/02/10 12:47:27;;;;;;;;;;;;;;;;;;5037656;28;20348;-75
2024/02/10 12:49:56;;;;;;;;;;;;;;;;;;5049411;28;19932;-74
2024/02/10 12:52:25;;;;;;;;;;;;;;;;;;5047815;28;19933;-76
2024/02/10 12:54:54;;;;;;;;;;;;;;;;;;5046899;28;19932;-75
2024/02/10 12:57:22;;;;;;;;;;;;;;;;;;5051169;28;20404;-72
2024/02/10 12:59:49;;;;;;;;;;;;;;;;;;5046936;28;19935;-76
2024/02/10 13:02:16;;;;;;;;;;;;;;;;;;5050776;28;20008;-76
2024/02/10 13:04:45;;;;;;;;;;;;;;;;;;5047719;28;20020;-76
2024/02/10 13:07:15;;;;;;;;;;;;;;;;;;5049229;28;19928;-74
2024/02/10 13:09:42;;;;;;;;;;;;;;;;;;5052299;28;20402;-76
2024/02/10 13:12:09;;;;;;;;;;;;;;;;;;5050408;28;19928;-75
2024/02/10 13:14:36;;;;;;;;;;;;;;;;;;5041490;28;19952;-75
2024/02/10 13:17:03;;;;;;;;;;;;;;;;;;5038554;28;20046;-74
2024/02/10 13:19:30;;;;;;;;;;;;;;;;;;5038956;28;20558;-76
2024/02/10 13:21:58;;;;;;;;;;;;;;;;;;5018441;28;19933;-76
2024/02/10 13:24:29;;;;;;;;;;;;;;;;;;5046240;28;19935;-74
2024/02/10 13:26:57;;;;;;;;;;;;;;;;;;5044370;28;19936;-76
2024/02/10 13:29:24;;;;;;;;;;;;;;;;;;5043966;28;20029;-78
2024/02/10 13:31:56;;;;;;;;;;;;;;;;;;5038197;28;19932;-78
2024/02/10 13:34:23;;;;;;;;;;;;;;;;;;5045948;28;19999;-77
2024/02/10 14:01:00;;;;;;;;;;;;;;;;;;5057217;28;19916;-77
2024/02/10 14:03:34;;;;;;;;;;;;;;;;;;5056204;28;19939;-75
2024/02/10 14:06:08;;;;;;;;;;;;;;;;;;5059465;28;19939;-73
2024/02/10 14:08:41;;;;;;;;;;;;;;;;;;5037641;28;19961;-73
2024/02/10 14:11:12;;;;;;;;;;;;;;;;;;5045656;28;19929;-74
2024/02/10 14:13:45;;;;;;;;;;;;;;;;;;5050324;28;19982;-74
2024/02/10 14:16:15;;;;;;;;;;;;;;;;;;5046099;28;19936;-73
2024/02/10 14:18:43;;;;;;;;;;;;;;;;;;5055362;28;19932;-73
2024/02/10 14:21:17;;;;;;;;;;;;;;;;;;5050779;28;19928;-73
2024/02/10 14:23:44;;;;;;;;;;;;;;;;;;5053234;28;19959;-73
2024/02/10 14:26:15;;;;;;;;;;;;;;;;;;5057951;28;19945;-71
2024/02/10 14:28:52;;;;;;;;;;;;;;;;;;5055428;28;19933;-72
2024/02/10 14:31:19;;;;;;;;;;;;;;;;;;5054766;28;20012;-71
2024/02/10 14:33:49;;;;;;;;;;;;;;;;;;5054041;28;20440;-72
2024/02/10 14:36:27;;;;;;;;;;;;;;;;;;5056185;28;19929;-72
2024/02/10 14:39:06;;;;;;;;;;;;;;;;;;5056756;28;19936;-73
2024/02/10 14:41:33;;;;;;;;;;;;;;;;;;5046894;28;19936;-71
2024/02/10 14:44:00;;;;;;;;;;;;;;;;;;5047700;28;19936;-72
2024/02/10 14:46:28;;;;;;;;;;;;;;;;;;5060472;28;20387;-72
2024/02/10 14:48:56;;;;;;;;;;;;;;;;;;5051459;28;19936;-73
2024/02/10 14:51:23;;;;;;;;;;;;;;;;;;5052150;28;20073;-72
2024/02/10 14:53:52;;;;;;;;;;;;;;;;;;5056702;28;19935;-73
2024/02/10 14:56:22;;;;;;;;;;;;;;;;;;5047344;28;20024;-72
2024/02/10 14:58:51;;;;;;;;;;;;;;;;;;5046305;28;19998;-77
2024/02/10 15:01:18;;;;;;;;;;;;;;;;;;5056659;28;19928;-80
2024/02/10 15:03:45;;;;;;;;;;;;;;;;;;5057299;28;20371;-81
2024/02/10 15:06:18;;;;;;;;;;;;;;;;;;5056050;28;19994;-79
2024/02/10 15:08:47;;;;;;;;;;;;;;;;;;5051691;28;19972;-79
2024/02/10 15:11:14;;;;;;;;;;;;;;;;;;5053688;28;19929;-79
2024/02/10 15:13:41;;;;;;;;;;;;;;;;;;5055418;28;19937;-79
2024/02/10 15:16:08;;;;;;;;;;;;;;;;;;5052379;28;19964;-79
2024/02/10 15:18:35;;;;;;;;;;;;;;;;;;5045594;28;19929;-79
2024/02/10 15:21:02;;;;;;;;;;;;;;;;;;5045953;28;19939;-79
2024/02/10 15:23:30;;;;;;;;;;;;;;;;;;5048463;28;20044;-79
2024/02/10 15:25:57;;;;;;;;;;;;;;;;;;5044369;28;19967;-80
2024/02/10 15:28:25;;;;;;;;;;;;;;;;;;5041556;28;19928;-78
2024/02/10 15:30:52;;;;;;;;;;;;;;;;;;5047298;28;20379;-79
2024/02/10 15:33:19;;;;;;;;;;;;;;;;;;5044258;28;20031;-80
2024/02/10 15:35:47;;;;;;;;;;;;;;;;;;5047748;28;20019;-79
2024/02/10 15:38:14;;;;;;;;;;;;;;;;;;5046511;28;19968;-79
2024/02/10 15:40:41;;;;;;;;;;;;;;;;;;5047707;28;19935;-77
2024/02/10 15:43:08;;;;;;;;;;;;;;;;;;5047644;28;19929;-79
2024/02/10 15:45:37;;;;;;;;;;;;;;;;;;5046778;28;19936;-80
2024/02/10 15:48:04;;;;;;;;;;;;;;;;;;5045415;28;19929;-80
2024/02/10 15:50:31;;;;;;;;;;;;;;;;;;5045616;28;19928;-79
2024/02/10 15:52:58;;;;;;;;;;;;;;;;;;5048218;28;19967;-78
2024/02/10 15:55:25;;;;;;;;;;;;;;;;;;5040779;28;19971;-79
2024/02/10 15:57:52;;;;;;;;;;;;;;;;;;5043281;28;19933;-77
2024/02/10 16:00:27;;;;;;;;;;;;;;;;;;5039777;28;19929;-74
2024/02/10 16:02:54;;;;;;;;;;;;;;;;;;5044366;28;19935;-78
2024/02/10 16:05:23;;;;;;;;;;;;;;;;;;5048029;28;19929;-71
2024/02/10 16:07:51;;;;;;;;;;;;;;;;;;5048176;28;19935;-76
2024/02/10 16:10:19;;;;;;;;;;;;;;;;;;5040238;28;19994;-74
2024/02/10 16:12:49;;;;;;;;;;;;;;;;;;5047992;28;19968;-79
2024/02/10 16:15:16;;;;;;;;;;;;;;;;;;5050876;28;19928;-79
2024/02/10 16:17:46;;;;;;;;;;;;;;;;;;5050795;28;19935;-78
2024/02/10 16:20:13;;;;;;;;;;;;;;;;;;5047903;28;20069;-77
2024/02/10 16:22:40;;;;;;;;;;;;;;;;;;5043154;28;19929;-72
2024/02/10 16:25:07;;;;;;;;;;;;;;;;;;5049797;28;20251;-72
2024/02/10 16:27:39;;;;;;;;;;;;;;;;;;5046756;28;20064;-72
2024/02/10 16:30:06;;;;;;;;;;;;;;;;;;5047419;28;19932;-72
2024/02/10 16:32:34;;;;;;;;;;;;;;;;;;5035181;28;19951;-72
2024/02/10 16:35:04;;;;;;;;;;;;;;;;;;5048162;28;20392;-72
2024/02/10 16:37:32;;;;;;;;;;;;;;;;;;5046114;28;20025;-72
2024/02/10 16:40:00;;;;;;;;;;;;;;;;;;5041892;28;19929;-72
2024/02/10 16:42:29;;;;;;;;;;;;;;;;;;5046151;28;19928;-73
2024/02/10 16:44:57;;;;;;;;;;;;;;;;;;5053307;28;20014;-73
2024/02/10 16:47:24;;;;;;;;;;;;;;;;;;5041768;28;20647;-72
2024/02/10 16:49:51;;;;;;;;;;;;;;;;;;5043437;28;19938;-72
2024/02/10 16:52:21;;;;;;;;;;;;;;;;;;5041715;28;20395;-72
2024/02/10 16:54:48;;;;;;;;;;;;;;;;;;5038010;28;20534;-72
2024/02/10 16:57:15;;;;;;;;;;;;;;;;;;5046157;28;19929;-72
2024/02/10 16:59:42;;;;;;;;;;;;;;;;;;5046028;28;19937;-71
2024/02/10 17:02:11;;;;;;;;;;;;;;;;;;5041225;28;20016;-72
2024/02/10 17:04:38;;;;;;;;;;;;;;;;;;5041130;28;19939;-72
2024/02/10 17:07:07;;;;;;;;;;;;;;;;;;5040254;28;20411;-73
2024/02/10 17:09:35;;;;;;;;;;;;;;;;;;5035598;28;19932;-71
2024/02/10 17:12:02;;;;;;;;;;;;;;;;;;5050731;28;19963;-72
2024/02/10 17:14:29;;;;;;;;;;;;;;;;;;5043037;28;19935;-72